createdAt,value
2023-03-03T00:00:17.671Z,55.62
2023-03-03T00:00:50.927Z,55.76
2023-03-03T00:01:26.268Z,55.79
2023-03-03T00:01:59.089Z,55.19
2023-03-03T00:02:35.113Z,55.55
2023-03-03T00:03:08.843Z,55.16
2023-03-03T00:03:44.413Z,55.10
2023-03-03T00:04:17.144Z,55.37
2023-03-03T00:04:49.986Z,55.38
2023-03-03T00:05:22.798Z,55.02
2023-03-03T00:06:02.611Z,55.27
2023-03-03T00:06:35.365Z,55.36
2023-03-03T00:07:08.184Z,55.38
2023-03-03T00:07:46.962Z,54.79
2023-03-03T00:08:20.143Z,54.77
2023-03-03T00:08:56.298Z,55.02
2023-03-03T00:09:29.078Z,55.56
2023-03-03T00:10:01.983Z,55.49
2023-03-03T00:10:34.780Z,55.43
2023-03-03T00:11:13.687Z,55.22
2023-03-03T00:11:48.761Z,55.09
2023-03-03T00:12:28.211Z,55.09
2023-03-03T00:13:01.093Z,55.40
2023-03-03T00:13:38.725Z,55.57
2023-03-03T00:14:30.062Z,55.67
2023-03-03T00:15:15.339Z,55.38
2023-03-03T00:15:51.686Z,54.99
2023-03-03T00:16:37.156Z,54.95
2023-03-03T00:17:24.100Z,55.22
2023-03-03T00:18:03.461Z,55.02
2023-03-03T00:18:37.264Z,54.88
2023-03-03T00:19:18.633Z,54.82
2023-03-03T00:19:51.726Z,55.06
2023-03-03T00:20:36.447Z,55.08
2023-03-03T00:21:32.088Z,54.96
2023-03-03T00:22:07.583Z,55.03
2023-03-03T00:22:53.743Z,54.98
2023-03-03T00:23:26.362Z,54.84
2023-03-03T00:24:13.892Z,54.88
2023-03-03T00:24:47.416Z,54.93
2023-03-03T00:25:26.073Z,54.82
2023-03-03T00:26:01.376Z,54.79
2023-03-03T00:26:38.226Z,54.83
2023-03-03T00:27:35.733Z,55.00
2023-03-03T00:28:28.523Z,54.90
2023-03-03T00:29:02.120Z,55.01
2023-03-03T00:29:36.729Z,54.97
2023-03-03T00:30:20.456Z,54.97
2023-03-03T00:31:02.324Z,54.94
2023-03-03T00:31:36.200Z,54.84
2023-03-03T00:32:21.275Z,54.82
2023-03-03T00:32:56.891Z,54.83
2023-03-03T00:33:32.593Z,54.69
2023-03-03T00:34:26.251Z,54.90
2023-03-03T00:35:18.757Z,55.13
2023-03-03T00:36:15.347Z,55.19
2023-03-03T00:36:48.645Z,54.94
2023-03-03T00:37:24.080Z,54.82
2023-03-03T00:38:02.236Z,55.20
2023-03-03T00:38:36.173Z,55.22
2023-03-03T00:39:38.137Z,55.11
2023-03-03T00:40:24.150Z,55.19
2023-03-03T00:40:56.844Z,55.28
2023-03-03T00:41:34.530Z,55.13
2023-03-03T00:42:16.350Z,55.12
2023-03-03T00:42:53.846Z,55.06
2023-03-03T00:43:31.938Z,55.28
2023-03-03T00:44:20.483Z,55.10
2023-03-03T00:44:56.753Z,54.79
2023-03-03T00:45:32.337Z,55.12
2023-03-03T00:46:10.094Z,54.99
2023-03-03T00:46:43.050Z,54.91
2023-03-03T00:47:31.961Z,54.87
2023-03-03T00:48:29.482Z,55.40
2023-03-03T00:49:02.273Z,55.29
2023-03-03T00:49:35.034Z,55.50
2023-03-03T00:50:07.710Z,55.84
2023-03-03T00:50:40.452Z,55.73
2023-03-03T00:51:35.806Z,55.22
2023-03-03T00:52:14.847Z,54.99
2023-03-03T00:53:21.984Z,55.08
2023-03-03T00:53:55.911Z,55.22
2023-03-03T00:54:28.689Z,54.96
2023-03-03T00:55:01.547Z,55.00
2023-03-03T00:55:34.583Z,55.19
2023-03-03T00:56:07.497Z,55.03
2023-03-03T00:56:40.283Z,54.91
2023-03-03T00:57:13.166Z,54.93
2023-03-03T00:57:45.929Z,54.95
2023-03-03T00:58:21.903Z,54.95
2023-03-03T00:58:54.694Z,55.00
2023-03-03T00:59:27.492Z,55.26
2023-03-03T01:00:06.889Z,55.05
2023-03-03T01:00:40.044Z,55.12
2023-03-03T01:01:12.949Z,55.15
2023-03-03T01:01:45.747Z,55.12
2023-03-03T01:02:18.499Z,55.11
2023-03-03T01:02:51.708Z,55.07
2023-03-03T01:03:25.169Z,55.27
2023-03-03T01:03:57.946Z,55.28
2023-03-03T01:04:30.698Z,55.22
2023-03-03T01:05:11.542Z,55.56
2023-03-03T01:05:44.422Z,55.43
2023-03-03T01:06:17.278Z,55.17
2023-03-03T01:06:50.080Z,55.21
2023-03-03T01:07:23.182Z,55.35
2023-03-03T01:07:55.937Z,55.42
2023-03-03T01:08:30.547Z,55.52
2023-03-03T01:09:05.893Z,55.25
2023-03-03T01:09:39.143Z,55.05
2023-03-03T01:10:14.337Z,55.23
2023-03-03T01:10:53.723Z,55.60
2023-03-03T01:11:28.662Z,55.18
2023-03-03T01:12:05.668Z,55.16
2023-03-03T01:12:38.825Z,55.13
2023-03-03T01:13:11.643Z,55.16
2023-03-03T01:13:45.646Z,55.10
2023-03-03T01:14:18.551Z,55.18
2023-03-03T01:14:53.143Z,55.25
2023-03-03T01:15:25.877Z,55.35
2023-03-03T01:15:59.531Z,55.27
2023-03-03T01:16:32.801Z,55.43
2023-03-03T01:17:05.580Z,55.51
2023-03-03T01:17:39.981Z,55.52
2023-03-03T01:18:12.764Z,55.48
2023-03-03T01:18:45.585Z,55.51
2023-03-03T01:19:18.373Z,55.48
2023-03-03T01:19:51.145Z,55.56
2023-03-03T01:20:23.982Z,55.64
2023-03-03T01:20:56.777Z,55.63
2023-03-03T01:21:29.547Z,55.54
2023-03-03T01:22:03.767Z,55.33
2023-03-03T01:22:36.596Z,55.36
2023-03-03T01:23:09.441Z,55.53
2023-03-03T01:23:42.276Z,55.35
2023-03-03T01:24:15.033Z,55.32
2023-03-03T01:24:51.079Z,55.51
2023-03-03T01:25:24.790Z,55.82
2023-03-03T01:25:57.567Z,55.73
2023-03-03T01:26:33.142Z,55.59
2023-03-03T01:27:05.916Z,55.69
2023-03-03T01:27:44.771Z,55.53
2023-03-03T01:28:22.597Z,55.67
2023-03-03T01:28:55.373Z,55.67
2023-03-03T01:29:31.031Z,55.56
2023-03-03T01:30:05.479Z,55.51
2023-03-03T01:30:39.315Z,55.40
2023-03-03T01:31:12.837Z,55.48
2023-03-03T01:31:45.583Z,55.44
2023-03-03T01:32:18.483Z,55.32
2023-03-03T01:32:51.269Z,55.31
2023-03-03T01:33:24.066Z,55.30
2023-03-03T01:33:57.388Z,55.27
2023-03-03T01:34:31.109Z,55.32
2023-03-03T01:35:06.188Z,55.65
2023-03-03T01:35:48.455Z,55.79
2023-03-03T01:36:26.783Z,56.14
2023-03-03T01:37:01.162Z,56.16
2023-03-03T01:37:36.241Z,55.87
2023-03-03T01:38:13.548Z,55.58
2023-03-03T01:38:46.425Z,55.53
2023-03-03T01:39:21.937Z,55.47
2023-03-03T01:39:54.824Z,55.53
2023-03-03T01:40:29.187Z,55.71
2023-03-03T01:41:02.082Z,55.62
2023-03-03T01:41:39.102Z,55.60
2023-03-03T01:42:11.842Z,55.65
2023-03-03T01:42:47.501Z,55.80
2023-03-03T01:43:20.378Z,55.63
2023-03-03T01:43:53.148Z,55.68
2023-03-03T01:44:26.531Z,55.90
2023-03-03T01:45:20.810Z,55.79
2023-03-03T01:46:00.095Z,55.76
2023-03-03T01:46:42.363Z,55.72
2023-03-03T01:47:21.514Z,55.57
2023-03-03T01:47:56.159Z,55.62
2023-03-03T01:48:33.142Z,55.61
2023-03-03T01:49:10.389Z,56.01
2023-03-03T01:49:49.569Z,55.99
2023-03-03T01:50:31.745Z,55.73
2023-03-03T01:51:07.475Z,55.50
2023-03-03T01:51:54.429Z,55.59
2023-03-03T01:52:49.921Z,55.70
2023-03-03T01:53:27.809Z,55.99
2023-03-03T01:54:05.605Z,55.97
2023-03-03T01:54:41.532Z,55.92
2023-03-03T01:55:20.649Z,55.85
2023-03-03T01:55:53.447Z,55.77
2023-03-03T01:56:27.202Z,55.84
2023-03-03T01:57:01.590Z,55.80
2023-03-03T01:57:37.161Z,55.86
2023-03-03T01:58:16.472Z,55.85
2023-03-03T01:59:03.964Z,55.82
2023-03-03T01:59:37.902Z,55.78
2023-03-03T02:00:16.527Z,55.79
2023-03-03T02:00:51.280Z,55.60
2023-03-03T02:01:10.307Z,55.75
2023-03-03T02:01:43.981Z,55.79
2023-03-03T02:02:17.721Z,55.81
2023-03-03T02:02:52.355Z,55.75
2023-03-03T02:03:34.836Z,55.71
2023-03-03T02:04:07.927Z,55.96
2023-03-03T02:04:40.742Z,55.95
2023-03-03T02:05:13.970Z,55.92
2023-03-03T02:05:46.752Z,55.86
2023-03-03T02:06:34.086Z,55.84
2023-03-03T02:07:10.864Z,56.50
2023-03-03T02:07:24.052Z,56.64
2023-03-03T02:07:37.026Z,56.53
2023-03-03T02:07:49.856Z,56.28
2023-03-03T02:08:02.730Z,56.38
2023-03-03T02:08:16.836Z,56.42
2023-03-03T02:08:35.540Z,56.29
2023-03-03T02:08:54.374Z,56.15
2023-03-03T02:09:27.857Z,56.12
2023-03-03T02:09:52.503Z,55.84
2023-03-03T02:10:07.351Z,55.86
2023-03-03T02:10:20.402Z,55.96
2023-03-03T02:10:33.275Z,55.98
2023-03-03T02:10:46.450Z,56.01
2023-03-03T02:10:59.442Z,56.14
2023-03-03T02:11:12.342Z,56.02
2023-03-03T02:11:25.184Z,56.11
2023-03-03T02:11:38.159Z,56.11
2023-03-03T02:11:52.689Z,56.05
2023-03-03T02:12:08.260Z,55.97
2023-03-03T02:12:22.889Z,56.00
2023-03-03T02:12:42.518Z,56.01
2023-03-03T02:12:56.699Z,55.98
2023-03-03T02:13:09.643Z,55.91
2023-03-03T02:13:22.574Z,55.99
2023-03-03T02:13:35.411Z,56.05
2023-03-03T02:13:48.541Z,55.93
2023-03-03T02:14:01.406Z,55.89
2023-03-03T02:14:14.340Z,55.86
2023-03-03T02:14:27.825Z,55.88
2023-03-03T02:14:40.773Z,55.75
2023-03-03T02:14:53.637Z,55.75
2023-03-03T02:15:20.242Z,55.78
2023-03-03T02:15:37.296Z,55.63
2023-03-03T02:15:50.443Z,55.56
2023-03-03T02:16:03.654Z,55.64
2023-03-03T02:16:16.561Z,55.69
2023-03-03T02:16:29.570Z,55.68
2023-03-03T02:16:42.520Z,55.92
2023-03-03T02:16:55.366Z,55.83
2023-03-03T02:17:08.410Z,55.88
2023-03-03T02:17:21.296Z,55.70
2023-03-03T02:17:34.156Z,55.67
2023-03-03T02:17:47.554Z,55.74
2023-03-03T02:18:03.121Z,55.82
2023-03-03T02:18:17.380Z,55.69
2023-03-03T02:18:30.305Z,55.70
2023-03-03T02:18:43.226Z,55.63
2023-03-03T02:18:56.204Z,55.84
2023-03-03T02:19:22.110Z,55.81
2023-03-03T02:19:52.758Z,55.81
2023-03-03T02:20:17.669Z,55.98
2023-03-03T02:20:39.771Z,56.00
2023-03-03T02:21:12.522Z,55.97
2023-03-03T02:21:28.545Z,56.11
2023-03-03T02:21:41.474Z,56.00
2023-03-03T02:21:54.329Z,56.08
2023-03-03T02:22:07.198Z,56.19
2023-03-03T02:22:24.041Z,56.41
2023-03-03T02:22:53.186Z,56.48
2023-03-03T02:23:27.456Z,56.54
2023-03-03T02:23:52.539Z,56.56
2023-03-03T02:24:45.401Z,56.46
2023-03-03T02:25:00.604Z,56.33
2023-03-03T02:25:16.302Z,56.28
2023-03-03T02:25:37.534Z,56.38
2023-03-03T02:25:58.638Z,56.25
2023-03-03T02:26:31.393Z,56.37
2023-03-03T02:26:44.934Z,56.56
2023-03-03T02:26:57.987Z,56.56
2023-03-03T02:27:11.291Z,56.53
2023-03-03T02:27:24.186Z,56.62
2023-03-03T02:27:37.133Z,56.68
2023-03-03T02:27:50.081Z,56.72
2023-03-03T02:28:03.047Z,56.71
2023-03-03T02:28:15.991Z,56.76
2023-03-03T02:28:30.508Z,56.62
2023-03-03T02:28:43.536Z,56.53
2023-03-03T02:28:56.476Z,56.40
2023-03-03T02:29:10.144Z,56.38
2023-03-03T02:29:23.052Z,56.32
2023-03-03T02:29:35.981Z,56.36
2023-03-03T02:29:49.006Z,56.32
2023-03-03T02:30:16.034Z,56.31
2023-03-03T02:30:29.064Z,56.32
2023-03-03T02:30:41.956Z,56.43
2023-03-03T02:30:58.346Z,56.49
2023-03-03T02:31:14.409Z,56.50
2023-03-03T02:31:28.763Z,56.48
2023-03-03T02:31:41.782Z,56.36
2023-03-03T02:31:54.798Z,56.46
2023-03-03T02:32:07.872Z,56.28
2023-03-03T02:32:20.812Z,56.25
2023-03-03T02:32:33.820Z,56.26
2023-03-03T02:32:46.849Z,56.20
2023-03-03T02:32:59.792Z,56.30
2023-03-03T02:33:12.652Z,56.30
2023-03-03T02:33:26.019Z,56.30
2023-03-03T02:33:42.861Z,56.32
2023-03-03T02:33:55.803Z,56.41
2023-03-03T02:34:08.750Z,56.57
2023-03-03T02:34:21.663Z,56.55
2023-03-03T02:34:50.940Z,56.43
2023-03-03T02:35:27.721Z,56.52
2023-03-03T02:35:41.350Z,56.36
2023-03-03T02:35:54.343Z,56.36
2023-03-03T02:36:07.407Z,56.35
2023-03-03T02:36:22.652Z,56.27
2023-03-03T02:36:37.451Z,56.23
2023-03-03T02:36:50.425Z,56.27
2023-03-03T02:37:04.064Z,56.28
2023-03-03T02:37:17.030Z,56.24
2023-03-03T02:37:30.251Z,56.20
2023-03-03T02:37:43.175Z,56.28
2023-03-03T02:37:59.219Z,56.38
2023-03-03T02:38:17.888Z,56.41
2023-03-03T02:38:42.520Z,56.32
2023-03-03T02:39:18.276Z,56.22
2023-03-03T02:39:31.157Z,56.17
2023-03-03T02:39:44.279Z,56.29
2023-03-03T02:39:57.130Z,56.33
2023-03-03T02:40:10.757Z,56.50
2023-03-03T02:40:24.507Z,56.58
2023-03-03T02:40:39.046Z,56.75
2023-03-03T02:41:28.116Z,56.73
2023-03-03T02:42:02.526Z,56.70
2023-03-03T02:42:17.285Z,56.62
2023-03-03T02:42:30.218Z,56.70
2023-03-03T02:42:43.164Z,56.51
2023-03-03T02:42:56.076Z,56.41
2023-03-03T02:43:08.938Z,56.38
2023-03-03T02:43:22.689Z,56.33
2023-03-03T02:44:08.835Z,56.29
2023-03-03T02:44:23.279Z,56.30
2023-03-03T02:44:36.212Z,56.26
2023-03-03T02:44:49.114Z,56.49
2023-03-03T02:45:01.958Z,56.42
2023-03-03T02:45:14.884Z,56.38
2023-03-03T02:45:27.812Z,56.33
2023-03-03T02:45:44.658Z,56.36
2023-03-03T02:45:57.967Z,56.30
2023-03-03T02:46:10.870Z,56.36
2023-03-03T02:46:23.782Z,56.23
2023-03-03T02:46:38.924Z,56.23
2023-03-03T02:46:52.675Z,56.23
2023-03-03T02:47:05.606Z,56.09
2023-03-03T02:47:18.517Z,56.13
2023-03-03T02:47:31.446Z,56.02
2023-03-03T02:47:50.872Z,56.17
2023-03-03T02:48:03.921Z,56.02
2023-03-03T02:48:16.783Z,56.02
2023-03-03T02:48:29.678Z,55.95
2023-03-03T02:48:42.680Z,56.00
2023-03-03T02:48:55.620Z,55.96
2023-03-03T02:49:09.410Z,55.98
2023-03-03T02:49:23.820Z,55.85
2023-03-03T02:49:36.810Z,55.85
2023-03-03T02:49:49.720Z,56.04
2023-03-03T02:50:02.634Z,56.05
2023-03-03T02:50:15.610Z,56.18
2023-03-03T02:50:28.550Z,56.20
2023-03-03T02:50:41.488Z,56.25
2023-03-03T02:50:54.496Z,56.39
2023-03-03T02:51:07.410Z,56.31
2023-03-03T02:51:20.304Z,56.21
2023-03-03T02:51:33.217Z,56.33
2023-03-03T02:51:46.103Z,56.29
2023-03-03T02:51:59.338Z,56.37
2023-03-03T02:52:12.309Z,56.38
2023-03-03T02:52:28.246Z,56.29
2023-03-03T02:52:41.145Z,56.42
2023-03-03T02:52:54.012Z,56.51
2023-03-03T02:53:06.868Z,56.40
2023-03-03T02:53:19.821Z,56.43
2023-03-03T02:53:32.666Z,56.52
2023-03-03T02:53:45.685Z,56.50
2023-03-03T02:53:58.607Z,56.49
2023-03-03T02:54:12.653Z,56.36
2023-03-03T02:54:26.613Z,56.41
2023-03-03T02:54:39.648Z,56.32
2023-03-03T02:54:52.492Z,56.41
2023-03-03T02:55:05.869Z,56.42
2023-03-03T02:55:18.770Z,56.41
2023-03-03T02:55:31.647Z,56.27
2023-03-03T02:55:44.539Z,56.34
2023-03-03T02:55:57.395Z,56.27
2023-03-03T02:56:10.281Z,56.30
2023-03-03T02:56:23.197Z,56.23
2023-03-03T02:56:36.457Z,56.25
2023-03-03T02:56:49.461Z,56.21
2023-03-03T02:57:02.321Z,56.17
2023-03-03T02:57:15.229Z,56.14
2023-03-03T02:57:28.076Z,56.12
2023-03-03T02:57:40.994Z,56.19
2023-03-03T02:57:53.943Z,56.24
2023-03-03T02:58:06.845Z,56.16
2023-03-03T02:58:19.753Z,56.21
2023-03-03T02:58:32.720Z,56.19
2023-03-03T02:58:45.640Z,56.22
2023-03-03T02:58:58.624Z,56.16
2023-03-03T02:59:11.519Z,56.17
2023-03-03T02:59:24.460Z,56.20
2023-03-03T02:59:37.741Z,56.22
2023-03-03T02:59:50.610Z,56.30
2023-03-03T03:00:03.756Z,56.23
2023-03-03T03:00:16.781Z,56.19
2023-03-03T03:00:29.634Z,56.45
2023-03-03T03:00:42.522Z,56.29
2023-03-03T03:00:55.748Z,56.17
2023-03-03T03:01:08.779Z,56.11
2023-03-03T03:01:21.849Z,56.20
2023-03-03T03:01:37.246Z,56.16
2023-03-03T03:01:50.285Z,56.01
2023-03-03T03:02:03.223Z,56.11
2023-03-03T03:02:16.089Z,56.11
2023-03-03T03:02:28.955Z,56.16
2023-03-03T03:02:41.847Z,56.18
2023-03-03T03:02:54.771Z,56.27
2023-03-03T03:03:07.662Z,56.25
2023-03-03T03:03:20.810Z,56.35
2023-03-03T03:03:33.724Z,56.38
2023-03-03T03:03:46.677Z,56.37
2023-03-03T03:03:59.618Z,56.53
2023-03-03T03:04:14.454Z,56.58
2023-03-03T03:04:27.690Z,56.55
2023-03-03T03:04:40.626Z,56.47
2023-03-03T03:04:53.623Z,56.57
2023-03-03T03:05:06.668Z,56.47
2023-03-03T03:05:19.588Z,56.44
2023-03-03T03:05:32.452Z,56.50
2023-03-03T03:05:45.341Z,56.55
2023-03-03T03:05:58.253Z,56.40
2023-03-03T03:06:11.218Z,56.34
2023-03-03T03:06:24.068Z,56.29
2023-03-03T03:06:37.438Z,56.37
2023-03-03T03:06:50.441Z,56.48
2023-03-03T03:07:03.708Z,56.32
2023-03-03T03:07:16.576Z,56.31
2023-03-03T03:07:29.504Z,56.25
2023-03-03T03:07:42.691Z,56.29
2023-03-03T03:07:55.609Z,56.33
2023-03-03T03:08:08.447Z,56.36
2023-03-03T03:08:21.350Z,56.17
2023-03-03T03:08:34.212Z,56.16
2023-03-03T03:08:47.145Z,56.12
2023-03-03T03:09:00.664Z,56.07
2023-03-03T03:09:13.770Z,56.10
2023-03-03T03:09:28.277Z,56.19
2023-03-03T03:09:41.319Z,56.19
2023-03-03T03:09:55.065Z,56.09
2023-03-03T03:10:08.318Z,56.19
2023-03-03T03:10:21.231Z,56.23
2023-03-03T03:10:36.509Z,56.16
2023-03-03T03:10:49.480Z,56.27
2023-03-03T03:11:02.507Z,56.25
2023-03-03T03:11:15.501Z,56.18
2023-03-03T03:11:28.419Z,56.20
2023-03-03T03:11:41.634Z,56.26
2023-03-03T03:11:54.533Z,56.24
2023-03-03T03:12:07.747Z,56.22
2023-03-03T03:12:21.394Z,56.27
2023-03-03T03:12:34.359Z,56.19
2023-03-03T03:12:47.270Z,56.20
2023-03-03T03:13:00.166Z,56.30
2023-03-03T03:13:13.017Z,56.30
2023-03-03T03:13:26.007Z,56.28
2023-03-03T03:13:38.900Z,56.27
2023-03-03T03:13:52.135Z,56.28
2023-03-03T03:14:05.713Z,56.35
2023-03-03T03:14:18.590Z,56.40
2023-03-03T03:14:31.525Z,56.43
2023-03-03T03:14:44.432Z,56.38
2023-03-03T03:14:57.430Z,56.34
2023-03-03T03:15:10.944Z,56.41
2023-03-03T03:15:23.820Z,56.45
2023-03-03T03:15:36.810Z,56.37
2023-03-03T03:15:49.658Z,56.30
2023-03-03T03:16:02.544Z,56.23
2023-03-03T03:16:15.438Z,56.39
2023-03-03T03:16:28.390Z,56.50
2023-03-03T03:16:41.459Z,56.41
2023-03-03T03:16:54.420Z,56.26
2023-03-03T03:17:07.376Z,56.22
2023-03-03T03:17:20.225Z,56.20
2023-03-03T03:17:33.143Z,56.25
2023-03-03T03:17:46.073Z,56.23
2023-03-03T03:17:58.921Z,56.14
2023-03-03T03:18:11.869Z,56.09
2023-03-03T03:18:24.864Z,56.16
2023-03-03T03:18:37.740Z,56.18
2023-03-03T03:18:50.886Z,56.28
2023-03-03T03:19:04.556Z,56.29
2023-03-03T03:19:17.478Z,56.46
2023-03-03T03:19:30.482Z,56.48
2023-03-03T03:19:43.319Z,56.46
2023-03-03T03:19:56.194Z,56.47
2023-03-03T03:20:09.568Z,56.46
2023-03-03T03:20:22.488Z,56.42
2023-03-03T03:20:40.164Z,56.44
2023-03-03T03:20:53.059Z,56.34
2023-03-03T03:21:07.703Z,56.34
2023-03-03T03:21:20.675Z,56.28
2023-03-03T03:21:33.692Z,56.30
2023-03-03T03:21:46.575Z,56.28
2023-03-03T03:21:59.672Z,56.25
2023-03-03T03:22:12.550Z,56.29
2023-03-03T03:22:25.483Z,56.35
2023-03-03T03:22:38.444Z,56.41
2023-03-03T03:22:51.324Z,56.41
2023-03-03T03:23:04.241Z,56.43
2023-03-03T03:23:17.236Z,56.49
2023-03-03T03:23:30.075Z,56.40
2023-03-03T03:23:43.009Z,56.36
2023-03-03T03:23:55.920Z,56.32
2023-03-03T03:24:08.979Z,56.28
2023-03-03T03:24:21.848Z,56.29
2023-03-03T03:24:34.710Z,56.43
2023-03-03T03:24:47.569Z,56.49
2023-03-03T03:25:00.463Z,56.36
2023-03-03T03:25:13.399Z,56.41
2023-03-03T03:25:26.291Z,56.55
2023-03-03T03:25:45.297Z,56.67
2023-03-03T03:25:58.178Z,56.80
2023-03-03T03:26:11.095Z,56.85
2023-03-03T03:26:24.412Z,56.59
2023-03-03T03:26:37.233Z,56.51
2023-03-03T03:26:50.096Z,56.47
2023-03-03T03:27:03.091Z,56.53
2023-03-03T03:27:16.082Z,56.53
2023-03-03T03:27:28.958Z,56.54
2023-03-03T03:27:41.831Z,56.58
2023-03-03T03:27:54.727Z,56.71
2023-03-03T03:28:07.783Z,56.69
2023-03-03T03:28:20.614Z,56.65
2023-03-03T03:28:33.623Z,56.62
2023-03-03T03:28:46.973Z,56.66
2023-03-03T03:29:00.042Z,56.80
2023-03-03T03:29:13.031Z,56.71
2023-03-03T03:29:25.952Z,56.64
2023-03-03T03:29:38.902Z,56.56
2023-03-03T03:29:51.843Z,56.72
2023-03-03T03:30:05.159Z,56.64
2023-03-03T03:30:20.768Z,56.61
2023-03-03T03:30:33.634Z,56.59
2023-03-03T03:30:46.600Z,56.53
2023-03-03T03:30:59.613Z,56.52
2023-03-03T03:31:12.859Z,56.42
2023-03-03T03:31:25.810Z,56.40
2023-03-03T03:31:39.327Z,56.43
2023-03-03T03:31:52.318Z,56.52
2023-03-03T03:32:05.590Z,56.64
2023-03-03T03:32:18.619Z,56.44
2023-03-03T03:32:31.548Z,56.44
2023-03-03T03:32:44.544Z,56.51
2023-03-03T03:32:57.497Z,56.43
2023-03-03T03:33:10.443Z,56.42
2023-03-03T03:33:23.328Z,56.43
2023-03-03T03:33:36.317Z,56.43
2023-03-03T03:33:49.355Z,56.42
2023-03-03T03:34:02.230Z,56.36
2023-03-03T03:34:15.145Z,56.40
2023-03-03T03:34:28.067Z,56.40
2023-03-03T03:34:40.981Z,56.44
2023-03-03T03:34:53.852Z,56.49
2023-03-03T03:35:07.226Z,56.46
2023-03-03T03:35:20.105Z,56.41
2023-03-03T03:35:33.922Z,56.43
2023-03-03T03:35:47.718Z,56.42
2023-03-03T03:36:00.690Z,56.42
2023-03-03T03:36:13.542Z,56.47
2023-03-03T03:36:28.363Z,56.44
2023-03-03T03:36:41.622Z,56.30
2023-03-03T03:36:54.503Z,56.41
2023-03-03T03:37:09.990Z,56.37
2023-03-03T03:37:23.026Z,56.34
2023-03-03T03:37:35.879Z,56.41
2023-03-03T03:37:48.768Z,56.34
2023-03-03T03:38:04.578Z,56.36
2023-03-03T03:38:17.627Z,56.37
2023-03-03T03:38:31.671Z,56.28
2023-03-03T03:38:44.602Z,56.23
2023-03-03T03:38:57.491Z,56.29
2023-03-03T03:39:12.814Z,56.37
2023-03-03T03:39:25.701Z,56.40
2023-03-03T03:39:38.603Z,56.31
2023-03-03T03:39:51.622Z,56.36
2023-03-03T03:40:04.989Z,56.37
2023-03-03T03:40:17.854Z,56.46
2023-03-03T03:40:30.724Z,56.43
2023-03-03T03:40:43.746Z,56.54
2023-03-03T03:40:56.688Z,56.41
2023-03-03T03:41:09.661Z,56.45
2023-03-03T03:41:22.560Z,56.45
2023-03-03T03:41:35.472Z,56.54
2023-03-03T03:41:48.366Z,56.49
2023-03-03T03:42:01.231Z,56.43
2023-03-03T03:42:14.190Z,56.45
2023-03-03T03:42:27.159Z,56.54
2023-03-03T03:42:41.380Z,56.69
2023-03-03T03:42:54.543Z,56.70
2023-03-03T03:43:07.420Z,56.86
2023-03-03T03:43:20.383Z,56.77
2023-03-03T03:43:33.355Z,56.66
2023-03-03T03:43:46.672Z,56.61
2023-03-03T03:43:59.568Z,56.67
2023-03-03T03:44:12.410Z,56.90
2023-03-03T03:44:25.398Z,57.04
2023-03-03T03:44:38.346Z,57.05
2023-03-03T03:44:51.704Z,56.93
2023-03-03T03:45:05.162Z,56.87
2023-03-03T03:45:18.212Z,56.82
2023-03-03T03:45:31.183Z,56.98
2023-03-03T03:45:44.197Z,57.18
2023-03-03T03:45:57.276Z,57.29
2023-03-03T03:46:10.258Z,57.37
2023-03-03T03:46:23.225Z,57.19
2023-03-03T03:46:36.150Z,57.07
2023-03-03T03:46:49.043Z,56.95
2023-03-03T03:47:01.991Z,56.95
2023-03-03T03:47:14.852Z,56.96
2023-03-03T03:47:27.791Z,56.93
2023-03-03T03:47:41.878Z,57.00
2023-03-03T03:47:54.772Z,56.86
2023-03-03T03:48:07.759Z,56.85
2023-03-03T03:48:21.041Z,56.83
2023-03-03T03:48:33.995Z,56.84
2023-03-03T03:48:46.880Z,56.77
2023-03-03T03:48:59.786Z,56.77
2023-03-03T03:49:12.681Z,56.71
2023-03-03T03:49:25.588Z,56.59
2023-03-03T03:49:40.839Z,56.56
2023-03-03T03:49:53.704Z,56.69
2023-03-03T03:50:06.996Z,56.67
2023-03-03T03:50:19.869Z,56.67
2023-03-03T03:50:32.750Z,56.72
2023-03-03T03:50:47.143Z,56.51
2023-03-03T03:51:00.094Z,56.57
2023-03-03T03:51:12.978Z,56.62
2023-03-03T03:51:25.899Z,56.58
2023-03-03T03:51:41.526Z,56.64
2023-03-03T03:51:54.421Z,56.62
2023-03-03T03:52:07.302Z,56.55
2023-03-03T03:52:20.258Z,56.48
2023-03-03T03:52:33.142Z,56.54
2023-03-03T03:52:46.092Z,56.35
2023-03-03T03:52:59.006Z,56.47
2023-03-03T03:53:11.923Z,56.66
2023-03-03T03:53:24.796Z,56.53
2023-03-03T03:53:37.644Z,56.62
2023-03-03T03:53:50.498Z,56.61
2023-03-03T03:54:03.426Z,56.54
2023-03-03T03:54:18.884Z,56.55
2023-03-03T03:54:31.754Z,56.66
2023-03-03T03:54:44.669Z,56.64
2023-03-03T03:54:57.671Z,56.58
2023-03-03T03:55:10.943Z,56.60
2023-03-03T03:55:23.818Z,56.58
2023-03-03T03:55:36.668Z,56.56
2023-03-03T03:55:49.652Z,56.61
2023-03-03T03:56:02.589Z,56.53
2023-03-03T03:56:16.102Z,56.55
2023-03-03T03:56:29.265Z,56.60
2023-03-03T03:56:42.201Z,56.61
2023-03-03T03:56:55.215Z,56.62
2023-03-03T03:57:08.449Z,56.63
2023-03-03T03:57:21.380Z,56.62
2023-03-03T03:57:34.515Z,56.65
2023-03-03T03:57:47.395Z,56.73
2023-03-03T03:58:00.455Z,56.76
2023-03-03T03:58:14.701Z,56.67
2023-03-03T03:58:27.807Z,56.66
2023-03-03T03:58:42.025Z,56.70
2023-03-03T03:58:54.925Z,56.67
2023-03-03T03:59:08.232Z,56.68
2023-03-03T03:59:21.306Z,56.68
2023-03-03T03:59:34.223Z,56.70
2023-03-03T03:59:47.118Z,56.74
2023-03-03T04:00:00.237Z,56.79
2023-03-03T04:00:13.536Z,56.88
2023-03-03T04:00:26.550Z,56.84
2023-03-03T04:00:42.062Z,56.84
2023-03-03T04:00:54.979Z,56.78
2023-03-03T04:01:08.078Z,56.64
2023-03-03T04:01:21.023Z,56.54
2023-03-03T04:01:34.053Z,56.49
2023-03-03T04:01:48.259Z,56.53
2023-03-03T04:02:01.125Z,56.49
2023-03-03T04:02:14.165Z,56.56
2023-03-03T04:02:27.200Z,56.60
2023-03-03T04:02:40.387Z,56.65
2023-03-03T04:02:53.447Z,56.84
2023-03-03T04:03:06.466Z,56.79
2023-03-03T04:03:19.561Z,56.78
2023-03-03T04:03:32.569Z,56.83
2023-03-03T04:03:45.460Z,56.81
2023-03-03T04:03:58.390Z,56.95
2023-03-03T04:04:11.344Z,56.97
2023-03-03T04:04:24.615Z,56.98
2023-03-03T04:04:37.477Z,57.02
2023-03-03T04:04:50.343Z,56.95
2023-03-03T04:05:03.653Z,56.98
2023-03-03T04:05:16.770Z,57.02
2023-03-03T04:05:29.693Z,56.98
2023-03-03T04:05:42.961Z,56.98
2023-03-03T04:05:55.829Z,56.99
2023-03-03T04:06:08.761Z,57.11
2023-03-03T04:06:21.614Z,57.04
2023-03-03T04:06:34.597Z,57.06
2023-03-03T04:06:47.640Z,56.99
2023-03-03T04:07:00.486Z,56.86
2023-03-03T04:07:13.415Z,56.81
2023-03-03T04:07:26.253Z,56.84
2023-03-03T04:07:39.088Z,56.84
2023-03-03T04:07:52.006Z,56.89
2023-03-03T04:08:05.102Z,56.89
2023-03-03T04:08:18.051Z,56.92
2023-03-03T04:08:30.966Z,56.94
2023-03-03T04:08:43.882Z,56.90
2023-03-03T04:08:56.785Z,56.88
2023-03-03T04:09:10.047Z,56.85
2023-03-03T04:09:22.970Z,56.89
2023-03-03T04:09:35.966Z,56.96
2023-03-03T04:09:48.952Z,56.98
2023-03-03T04:10:01.802Z,57.12
2023-03-03T04:10:14.672Z,57.10
2023-03-03T04:10:27.593Z,57.22
2023-03-03T04:10:40.541Z,57.21
2023-03-03T04:10:53.504Z,57.23
2023-03-03T04:11:06.372Z,57.25
2023-03-03T04:11:49.404Z,57.49
2023-03-03T04:12:02.354Z,57.59
2023-03-03T04:12:15.213Z,57.52
2023-03-03T04:12:28.046Z,57.51
2023-03-03T04:12:43.682Z,57.52
2023-03-03T04:12:56.586Z,57.49
2023-03-03T04:13:09.472Z,57.52
2023-03-03T04:13:23.387Z,57.46
2023-03-03T04:13:36.294Z,57.40
2023-03-03T04:13:49.246Z,57.35
2023-03-03T04:14:02.183Z,57.33
2023-03-03T04:14:15.171Z,57.20
2023-03-03T04:14:28.078Z,57.16
2023-03-03T04:14:40.966Z,56.97
2023-03-03T04:14:53.896Z,56.94
2023-03-03T04:15:08.348Z,56.95
2023-03-03T04:15:51.848Z,57.03
2023-03-03T04:16:05.119Z,56.83
2023-03-03T04:16:18.033Z,56.93
2023-03-03T04:16:30.965Z,56.97
2023-03-03T04:16:43.976Z,57.00
2023-03-03T04:16:56.867Z,56.99
2023-03-03T04:17:16.104Z,56.88
2023-03-03T04:17:28.966Z,56.99
2023-03-03T04:17:41.918Z,56.89
2023-03-03T04:17:54.760Z,56.86
2023-03-03T04:18:07.617Z,56.76
2023-03-03T04:18:20.494Z,56.88
2023-03-03T04:18:33.383Z,56.83
2023-03-03T04:18:46.768Z,56.85
2023-03-03T04:18:59.986Z,56.88
2023-03-03T04:19:12.894Z,56.90
2023-03-03T04:19:25.783Z,56.90
2023-03-03T04:19:38.694Z,56.93
2023-03-03T04:19:53.635Z,56.97
2023-03-03T04:20:06.989Z,56.91
2023-03-03T04:20:20.116Z,57.06
2023-03-03T04:20:33.161Z,56.88